createdAt,value
2023-02-14T00:03:00.198Z,28.60
2023-02-14T00:13:05.009Z,26.83
2023-02-14T00:23:08.138Z,25.83
2023-02-14T00:33:12.790Z,26.40
2023-02-14T00:43:15.999Z,25.33
2023-02-14T00:53:20.585Z,25.27
2023-02-14T01:03:23.836Z,23.43
2023-02-14T01:13:28.726Z,23.07
2023-02-14T01:23:31.839Z,23.77
2023-02-14T01:33:36.521Z,23.97
2023-02-14T01:44:00.975Z,21.00
2023-02-14T01:54:08.490Z,19.60
2023-02-14T02:04:14.670Z,18.40
2023-02-14T02:14:22.120Z,18.97
2023-02-14T02:24:36.309Z,18.80
2023-02-14T02:35:13.362Z,18.57
2023-02-14T02:45:28.218Z,18.30
2023-02-14T02:55:59.545Z,17.60
2023-02-14T03:06:04.166Z,17.63
2023-02-14T03:16:42.105Z,17.30
2023-02-14T03:26:50.196Z,15.47
2023-02-14T03:37:01.412Z,17.60
2023-02-14T03:47:08.947Z,17.47
2023-02-14T03:57:19.568Z,16.57
2023-02-14T04:07:24.737Z,16.77
2023-02-14T04:17:46.868Z,16.13
2023-02-14T04:27:50.277Z,15.90
2023-02-14T04:37:54.793Z,16.50
2023-02-14T04:47:57.901Z,16.77
2023-02-14T04:58:02.444Z,17.00
2023-02-14T05:08:06.816Z,15.80
2023-02-14T05:18:11.374Z,15.03
2023-02-14T05:28:14.653Z,13.87
2023-02-14T05:38:19.491Z,14.63
2023-02-14T05:48:22.938Z,14.17
2023-02-14T05:58:27.593Z,12.83
2023-02-14T06:08:30.811Z,12.37
2023-02-14T06:18:35.437Z,14.00
2023-02-14T06:28:38.659Z,14.13
2023-02-14T06:38:43.490Z,13.90
2023-02-14T06:48:47.058Z,15.27
2023-02-14T06:58:51.579Z,14.47
2023-02-14T07:08:54.777Z,14.13
2023-02-14T07:18:59.828Z,13.57
2023-02-14T07:29:03.123Z,12.37
2023-02-14T07:39:07.774Z,12.57
2023-02-14T07:49:10.993Z,14.97
2023-02-14T07:59:15.702Z,14.40
2023-02-14T08:09:24.749Z,12.77
2023-02-14T08:19:29.663Z,13.07
2023-02-14T08:29:32.835Z,13.10
2023-02-14T08:39:37.310Z,12.00
2023-02-14T08:49:40.507Z,10.27
2023-02-14T08:59:46.126Z,10.87
2023-02-14T09:09:49.316Z,10.33
2023-02-14T09:19:53.982Z,9.20
2023-02-14T09:29:57.295Z,8.73
2023-02-14T09:40:01.966Z,7.13
2023-02-14T09:50:07.600Z,7.40
2023-02-14T10:00:34.402Z,8.13
2023-02-14T10:10:41.554Z,7.70
2023-02-14T10:20:50.665Z,8.00
2023-02-14T10:31:04.153Z,9.00
2023-02-14T10:41:27.282Z,9.23
2023-02-14T10:51:40.738Z,9.20
2023-02-14T11:01:45.818Z,9.43
2023-02-14T11:11:52.428Z,10.93
2023-02-14T11:21:59.457Z,10.67
2023-02-14T11:32:09.760Z,10.70
2023-02-14T11:42:14.855Z,12.37
2023-02-14T11:52:19.652Z,10.93
2023-02-14T12:02:32.588Z,12.23
2023-02-14T12:12:36.797Z,11.37
2023-02-14T12:22:47.738Z,12.10
2023-02-14T12:32:52.446Z,11.13
2023-02-14T12:43:22.286Z,13.20
2023-02-14T12:53:49.187Z,12.87
2023-02-14T13:04:17.816Z,11.87
2023-02-14T13:14:37.955Z,12.23
2023-02-14T13:24:44.872Z,10.63
2023-02-14T13:34:49.756Z,10.40
2023-02-14T13:44:54.395Z,10.53
2023-02-14T13:55:04.444Z,11.20
2023-02-14T14:05:42.714Z,10.40
2023-02-14T14:26:36.998Z,12.47
2023-02-14T14:36:40.153Z,14.83
2023-02-14T14:46:44.835Z,16.27
2023-02-14T14:56:51.981Z,16.10
2023-02-14T15:06:58.791Z,16.30
2023-02-14T15:17:04.472Z,18.83
2023-02-14T15:27:15.998Z,19.50
2023-02-14T15:37:20.136Z,19.33
2023-02-14T15:47:24.644Z,21.43
2023-02-14T15:57:29.716Z,21.73
2023-02-14T16:07:34.400Z,23.13
2023-02-14T16:17:37.765Z,22.27
2023-02-14T16:27:42.944Z,22.07
2023-02-14T16:37:47.529Z,24.27
2023-02-14T16:47:52.287Z,22.83
2023-02-14T16:57:55.653Z,22.83
2023-02-14T17:08:01.766Z,23.10
2023-02-14T17:18:09.862Z,23.17
2023-02-14T17:28:14.432Z,22.27
2023-02-14T17:38:18.430Z,22.07
2023-02-14T17:48:23.663Z,22.57
2023-02-14T17:58:26.861Z,24.07
2023-02-14T18:08:33.106Z,22.80
2023-02-14T18:18:36.250Z,24.00
2023-02-14T18:28:41.127Z,22.63
2023-02-14T18:38:47.151Z,25.77
2023-02-14T18:48:52.521Z,26.60
2023-02-14T18:58:59.204Z,25.37
2023-02-14T19:09:04.523Z,25.60
2023-02-14T19:19:07.686Z,25.20
2023-02-14T19:29:14.540Z,23.70
2023-02-14T19:39:19.061Z,21.77
2023-02-14T19:49:23.788Z,21.13
2023-02-14T19:59:27.887Z,21.67
2023-02-14T20:09:33.454Z,21.97
2023-02-14T20:19:38.267Z,29.70
2023-02-14T20:29:44.921Z,25.43
2023-02-14T20:39:48.232Z,23.57
2023-02-14T20:49:52.743Z,23.90
2023-02-14T20:59:56.045Z,23.37
2023-02-14T21:10:00.703Z,23.43
2023-02-14T21:20:04.317Z,22.30
2023-02-14T21:30:10.404Z,23.03
2023-02-14T21:40:13.776Z,23.40
2023-02-14T21:50:33.777Z,22.27
2023-02-14T22:00:37.008Z,19.93
2023-02-14T22:10:41.568Z,19.50
2023-02-14T22:20:44.951Z,18.70
2023-02-14T22:30:49.963Z,18.20
2023-02-14T22:40:53.241Z,20.17
2023-02-14T22:50:57.872Z,21.87
2023-02-14T23:01:01.038Z,21.37
2023-02-14T23:11:09.567Z,20.87
2023-02-14T23:21:32.409Z,19.57
2023-02-14T23:31:37.004Z,18.50
2023-02-14T23:41:49.219Z,17.77
2023-02-14T23:51:55.574Z,17.47
